createdAt,value
2023-06-20T00:02:03.499Z,99477.25
2023-06-20T00:04:30.807Z,99467.16
2023-06-20T00:06:58.219Z,99468.50
2023-06-20T00:09:28.138Z,99466.13
2023-06-20T00:11:55.377Z,99465.94
2023-06-20T00:14:22.353Z,99471.63
2023-06-20T00:16:49.588Z,99468.25
2023-06-20T00:19:16.669Z,99456.34
2023-06-20T00:21:44.320Z,99454.16
2023-06-20T00:24:13.731Z,99451.28
2023-06-20T00:26:41.640Z,99461.56
2023-06-20T00:29:10.739Z,99457.44
2023-06-20T00:31:38.301Z,99458.75
2023-06-20T00:34:07.361Z,99453.63
2023-06-20T00:36:39.689Z,99450.41
2023-06-20T00:39:06.637Z,99462.63
2023-06-20T00:41:33.911Z,99463.72
2023-06-20T00:44:04.755Z,99460.59
2023-06-20T00:46:39.211Z,99453.44
2023-06-20T00:49:07.627Z,99449.25
2023-06-20T00:51:35.231Z,99441.69
2023-06-20T00:54:03.212Z,99444.50
2023-06-20T00:56:33.430Z,99448.47
2023-06-20T00:59:00.443Z,99438.25
2023-06-20T01:01:33.187Z,99440.38
2023-06-20T01:04:03.251Z,99441.72
2023-06-20T01:06:35.334Z,99435.34
2023-06-20T01:09:14.393Z,99436.44
2023-06-20T01:11:44.911Z,99435.53
2023-06-20T01:14:21.123Z,99434.63
2023-06-20T01:16:51.650Z,99436.09
2023-06-20T01:19:21.643Z,99432.31
2023-06-20T01:21:55.272Z,99435.34
2023-06-20T01:24:37.193Z,99432.84
2023-06-20T01:27:20.119Z,99431.97
2023-06-20T01:30:11.181Z,99435.84
2023-06-20T01:32:43.455Z,99438.41
2023-06-20T01:35:18.725Z,99434.84
2023-06-20T01:37:47.395Z,99421.44
2023-06-20T01:40:18.882Z,99425.69
2023-06-20T01:42:47.226Z,99414.19
2023-06-20T01:45:14.888Z,99417.41
2023-06-20T01:47:42.606Z,99413.09
2023-06-20T01:50:09.947Z,99415.28
2023-06-20T01:52:38.195Z,99409.13
2023-06-20T01:55:07.860Z,99413.50
2023-06-20T01:57:35.552Z,99414.75
2023-06-20T02:00:07.074Z,99412.59
2023-06-20T02:02:40.410Z,99414.50
2023-06-20T02:05:08.576Z,99416.56
2023-06-20T02:07:37.154Z,99418.03
2023-06-20T02:10:04.667Z,99419.78
2023-06-20T02:12:32.774Z,99423.75
2023-06-20T02:15:00.241Z,99421.34
2023-06-20T02:17:30.275Z,99434.44
2023-06-20T02:19:59.740Z,99431.63
2023-06-20T02:22:27.638Z,99419.59
2023-06-20T02:24:58.988Z,99424.63
2023-06-20T02:27:27.679Z,99422.97
2023-06-20T02:29:58.129Z,99425.63
2023-06-20T02:32:26.428Z,99423.72
2023-06-20T02:34:55.685Z,99422.09
2023-06-20T02:37:24.269Z,99426.47
2023-06-20T02:39:51.667Z,99423.75
2023-06-20T02:42:19.054Z,99427.34
2023-06-20T02:44:52.199Z,99430.97
2023-06-20T02:47:25.009Z,99434.00
2023-06-20T02:49:51.908Z,99444.31
2023-06-20T02:52:19.156Z,99435.19
2023-06-20T02:54:49.253Z,99435.59
2023-06-20T02:57:19.264Z,99434.84
2023-06-20T02:59:50.058Z,99445.63
2023-06-20T03:02:21.400Z,99441.53
2023-06-20T03:05:30.256Z,99436.06
2023-06-20T03:07:58.418Z,99436.16
2023-06-20T03:10:27.633Z,99433.53
2023-06-20T03:12:54.959Z,99443.59
2023-06-20T03:15:22.249Z,99443.94
2023-06-20T03:17:49.711Z,99443.28
2023-06-20T03:20:16.860Z,99449.34
2023-06-20T03:22:44.459Z,99447.47
2023-06-20T03:25:14.050Z,99459.28
2023-06-20T03:28:20.198Z,99465.28
2023-06-20T03:30:51.513Z,99476.16
2023-06-20T03:33:22.086Z,99481.22
2023-06-20T03:35:49.192Z,99478.66
2023-06-20T03:38:19.448Z,99481.75
2023-06-20T03:40:47.196Z,99481.44
2023-06-20T03:43:14.461Z,99482.25
2023-06-20T03:45:41.460Z,99476.97
2023-06-20T03:48:11.228Z,99484.31
2023-06-20T03:50:38.774Z,99487.72
2023-06-20T03:53:09.546Z,99488.78
2023-06-20T03:55:36.575Z,99480.47
2023-06-20T03:58:03.851Z,99484.91
2023-06-20T04:00:30.983Z,99479.00
2023-06-20T04:03:21.879Z,99485.97
2023-06-20T04:05:51.316Z,99480.94
2023-06-20T04:08:39.738Z,99475.56
2023-06-20T04:11:06.983Z,99482.25
2023-06-20T04:13:36.194Z,99486.53
2023-06-20T04:16:04.072Z,99483.06
2023-06-20T04:18:33.213Z,99487.59
2023-06-20T04:21:03.518Z,99488.84
2023-06-20T04:23:32.831Z,99493.88
2023-06-20T04:26:00.817Z,99492.88
2023-06-20T04:28:30.194Z,99492.59
2023-06-20T04:31:02.353Z,99501.84
2023-06-20T04:33:31.683Z,99489.06
2023-06-20T04:35:59.780Z,99496.50
2023-06-20T04:38:33.558Z,99499.41
2023-06-20T04:41:02.186Z,99497.22
2023-06-20T04:43:29.798Z,99488.34
2023-06-20T04:45:58.130Z,99501.56
2023-06-20T04:48:30.344Z,99497.13
2023-06-20T04:50:59.144Z,99502.94
2023-06-20T04:53:29.086Z,99503.00
2023-06-20T04:55:56.549Z,99510.34
2023-06-20T04:58:23.773Z,99516.00
2023-06-20T05:00:51.127Z,99522.50
2023-06-20T05:03:21.072Z,99526.97
2023-06-20T05:05:51.285Z,99525.41
2023-06-20T05:08:18.469Z,99518.81
2023-06-20T05:10:45.749Z,99523.59
2023-06-20T05:13:12.599Z,99527.56
2023-06-20T05:15:39.812Z,99518.22
2023-06-20T05:18:06.774Z,99526.34
2023-06-20T05:20:34.557Z,99535.97
2023-06-20T05:23:03.882Z,99529.81
2023-06-20T05:25:31.333Z,99530.34
2023-06-20T05:27:58.916Z,99531.59
2023-06-20T05:30:26.602Z,99529.06
2023-06-20T05:32:54.215Z,99532.19
2023-06-20T05:35:21.652Z,99534.59
2023-06-20T05:37:50.985Z,99547.47
2023-06-20T05:40:18.898Z,99550.41
2023-06-20T05:42:45.881Z,99558.53
2023-06-20T05:45:13.510Z,99557.81
2023-06-20T05:47:40.582Z,99546.28
2023-06-20T05:50:08.211Z,99549.34
2023-06-20T05:52:37.263Z,99551.03
2023-06-20T05:55:04.982Z,99552.59
2023-06-20T05:57:31.944Z,99548.44
2023-06-20T05:59:59.205Z,99554.88
2023-06-20T06:02:26.162Z,99555.97
2023-06-20T06:04:53.532Z,99549.19
2023-06-20T06:07:22.982Z,99559.22
2023-06-20T06:09:50.376Z,99566.84
2023-06-20T06:12:17.423Z,99567.34
2023-06-20T06:14:44.702Z,99560.50
2023-06-20T06:17:14.454Z,99562.47
2023-06-20T06:19:41.861Z,99555.72
2023-06-20T06:22:08.938Z,99562.25
2023-06-20T06:24:36.443Z,99558.00
2023-06-20T06:27:05.357Z,99553.84
2023-06-20T06:29:32.933Z,99560.94
2023-06-20T06:32:00.275Z,99559.94
2023-06-20T06:34:27.725Z,99567.44
2023-06-20T06:36:55.086Z,99565.72
2023-06-20T06:39:22.641Z,99569.44
2023-06-20T06:41:53.113Z,99573.34
2023-06-20T06:44:23.628Z,99569.94
2023-06-20T06:46:53.189Z,99569.28
2023-06-20T06:49:20.611Z,99566.44
2023-06-20T06:51:49.351Z,99578.66
2023-06-20T06:54:18.686Z,99581.00
2023-06-20T06:56:45.804Z,99580.78
2023-06-20T06:59:13.056Z,99588.53
2023-06-20T07:01:40.635Z,99592.78
2023-06-20T07:04:08.238Z,99580.53
2023-06-20T07:06:35.291Z,99592.91
2023-06-20T07:09:02.699Z,99596.66
2023-06-20T07:11:29.795Z,99597.03
2023-06-20T07:13:57.255Z,99590.78
2023-06-20T07:16:26.930Z,99585.97
2023-06-20T07:18:54.263Z,99587.44
2023-06-20T07:21:21.259Z,99595.44
2023-06-20T07:23:48.498Z,99597.03
2023-06-20T07:26:15.434Z,99606.16
2023-06-20T07:28:43.075Z,99605.03
2023-06-20T07:31:16.307Z,99599.78
2023-06-20T07:33:43.848Z,99594.88
2023-06-20T07:36:14.375Z,99599.50
2023-06-20T07:38:41.897Z,99595.25
2023-06-20T07:41:08.987Z,99591.59
2023-06-20T07:43:36.255Z,99589.19
2023-06-20T07:46:03.246Z,99583.06
2023-06-20T07:48:31.096Z,99581.53
2023-06-20T07:50:58.360Z,99572.25
2023-06-20T07:53:25.668Z,99579.38
2023-06-20T07:55:53.068Z,99578.84
2023-06-20T07:58:20.828Z,99574.75
2023-06-20T08:00:48.250Z,99575.28
2023-06-20T08:03:23.311Z,99578.09
2023-06-20T08:05:50.408Z,99576.94
2023-06-20T08:08:20.052Z,99570.03
2023-06-20T08:10:46.966Z,99581.91
2023-06-20T08:13:16.685Z,99580.03
2023-06-20T08:15:43.648Z,99571.75
2023-06-20T08:18:10.966Z,99572.63
2023-06-20T08:20:42.458Z,99571.59
2023-06-20T08:23:09.707Z,99571.47
2023-06-20T08:25:36.632Z,99565.69
2023-06-20T08:38:36.160Z,99570.38
2023-06-20T08:41:05.192Z,99577.09
2023-06-20T08:43:35.453Z,99572.50
2023-06-20T08:46:02.823Z,99573.97
2023-06-20T08:48:32.139Z,99567.41
2023-06-20T08:50:59.447Z,99569.00
2023-06-20T08:53:29.497Z,99574.00
2023-06-20T08:55:59.885Z,99563.16
2023-06-20T08:58:26.855Z,99565.25
2023-06-20T09:00:55.033Z,99575.22
2023-06-20T09:03:22.300Z,99568.53
2023-06-20T09:05:51.968Z,99572.84
2023-06-20T09:08:18.951Z,99572.19
2023-06-20T09:10:46.741Z,99565.56
2023-06-20T09:13:16.546Z,99565.63
2023-06-20T09:15:44.248Z,99564.94
2023-06-20T09:18:13.977Z,99562.56
2023-06-20T09:20:44.576Z,99561.50
2023-06-20T09:23:12.054Z,99557.09
2023-06-20T09:25:41.406Z,99569.22
2023-06-20T09:28:16.938Z,99561.38
2023-06-20T09:30:49.606Z,99569.84
2023-06-20T09:33:17.359Z,99561.66
2023-06-20T09:35:44.791Z,99566.47
2023-06-20T09:38:11.878Z,99583.38
2023-06-20T09:40:43.012Z,99584.53
2023-06-20T09:43:10.144Z,99577.97
2023-06-20T09:45:37.586Z,99582.56
2023-06-20T09:48:04.893Z,99579.47
2023-06-20T09:50:34.177Z,99577.78
2023-06-20T09:53:16.409Z,99586.22
2023-06-20T09:55:44.274Z,99591.72
2023-06-20T09:58:11.717Z,99586.38
2023-06-20T10:00:44.180Z,99579.19
2023-06-20T10:03:20.841Z,99578.63
2023-06-20T10:06:00.611Z,99573.38
2023-06-20T10:08:27.742Z,99564.25
2023-06-20T10:10:57.276Z,99572.19
2023-06-20T10:13:27.599Z,99562.03
2023-06-20T10:16:00.433Z,99560.13
2023-06-20T10:18:33.615Z,99564.25
2023-06-20T10:21:07.656Z,99564.25
2023-06-20T10:23:40.172Z,99569.63
2023-06-20T10:26:09.316Z,99566.06
2023-06-20T10:28:40.263Z,99564.13
2023-06-20T10:31:07.775Z,99572.19
2023-06-20T10:33:35.648Z,99571.31
2023-06-20T10:36:04.398Z,99567.78
2023-06-20T10:38:32.465Z,99569.03
2023-06-20T10:41:09.736Z,99563.75
2023-06-20T10:43:55.126Z,99561.56
2023-06-20T10:46:28.791Z,99570.31
2023-06-20T10:48:55.938Z,99570.94
2023-06-20T10:51:23.199Z,99569.34
2023-06-20T10:53:50.129Z,99566.00
2023-06-20T10:56:27.990Z,99562.66
2023-06-20T10:58:54.987Z,99555.81
2023-06-20T11:01:27.392Z,99560.41
2023-06-20T11:03:54.436Z,99555.94
2023-06-20T11:06:21.676Z,99559.50
2023-06-20T11:08:48.642Z,99543.78
2023-06-20T11:11:16.022Z,99545.94
2023-06-20T11:13:44.613Z,99542.44
2023-06-20T11:16:23.628Z,99537.41
2023-06-20T11:18:50.862Z,99538.09
2023-06-20T11:21:18.250Z,99533.53
2023-06-20T11:23:45.427Z,99542.41
2023-06-20T11:26:12.910Z,99527.00
2023-06-20T11:28:40.045Z,99528.72
2023-06-20T11:35:04.543Z,99537.41
2023-06-20T11:37:32.103Z,99534.44
2023-06-20T11:39:59.867Z,99535.91
2023-06-20T11:42:33.567Z,99527.00
2023-06-20T11:46:13.735Z,99528.25
2023-06-20T11:48:51.108Z,99529.44
2023-06-20T11:51:27.896Z,99530.44
2023-06-20T11:54:03.014Z,99517.22
2023-06-20T11:56:36.022Z,99517.06
2023-06-20T11:59:11.567Z,99515.44
2023-06-20T12:06:38.915Z,99516.53
2023-06-20T12:09:17.826Z,99518.22
2023-06-20T12:11:57.133Z,99520.78
2023-06-20T12:15:31.398Z,99509.72
2023-06-20T12:17:59.635Z,99502.44
2023-06-20T12:20:35.455Z,99489.84
2023-06-20T12:23:05.897Z,99500.09
2023-06-20T12:25:35.303Z,99503.69
2023-06-20T12:28:02.972Z,99503.75
2023-06-20T12:30:32.397Z,99505.06
2023-06-20T12:33:00.400Z,99496.31
2023-06-20T12:35:27.688Z,99493.31
2023-06-20T12:37:55.048Z,99489.41
2023-06-20T12:40:22.048Z,99490.75
2023-06-20T12:43:54.382Z,99481.72
2023-06-20T12:46:21.327Z,99484.56
2023-06-20T12:48:48.604Z,99479.66
2023-06-20T12:51:15.916Z,99479.81
2023-06-20T12:53:45.053Z,99483.03
2023-06-20T12:56:12.112Z,99479.88
2023-06-20T12:59:14.636Z,99479.84
2023-06-20T13:01:46.471Z,99480.31
2023-06-20T13:04:50.874Z,99473.00
2023-06-20T13:07:20.921Z,99469.09
2023-06-20T13:09:51.567Z,99475.72
2023-06-20T13:12:18.889Z,99473.19
2023-06-20T13:15:01.773Z,99461.34
2023-06-20T13:17:33.937Z,99462.03
2023-06-20T13:20:01.742Z,99467.97
2023-06-20T13:22:31.712Z,99466.78
2023-06-20T13:24:59.032Z,99461.25
2023-06-20T13:27:28.989Z,99461.66
2023-06-20T13:29:56.329Z,99464.41
2023-06-20T13:32:25.754Z,99463.91
2023-06-20T13:34:53.036Z,99458.81
2023-06-20T13:37:20.231Z,99450.53
2023-06-20T13:39:47.621Z,99451.41
2023-06-20T13:42:14.570Z,99453.53
2023-06-20T13:44:43.563Z,99450.06
2023-06-20T13:47:12.361Z,99450.16
2023-06-20T13:49:39.888Z,99438.47
2023-06-20T13:52:07.219Z,99439.31
2023-06-20T13:54:34.443Z,99441.06
2023-06-20T13:57:04.220Z,99434.59
2023-06-20T13:59:33.693Z,99431.78
2023-06-20T14:02:00.804Z,99422.84
2023-06-20T14:04:31.048Z,99428.47
2023-06-20T14:06:58.034Z,99434.03
2023-06-20T14:09:25.302Z,99427.22
2023-06-20T14:11:52.208Z,99424.34
2023-06-20T14:14:19.503Z,99426.63
2023-06-20T14:16:46.468Z,99422.50
2023-06-20T14:19:16.230Z,99429.53
2023-06-20T14:21:46.590Z,99433.22
2023-06-20T14:24:16.384Z,99426.41
2023-06-20T14:26:44.383Z,99427.84
2023-06-20T14:29:15.857Z,99428.09
2023-06-20T14:31:48.800Z,99415.56
2023-06-20T14:34:16.428Z,99426.72
2023-06-20T14:36:46.374Z,99425.03
2023-06-20T14:39:14.191Z,99420.81
2023-06-20T14:41:41.980Z,99417.75
2023-06-20T14:44:09.281Z,99417.78
2023-06-20T14:47:27.269Z,99410.00
2023-06-20T14:49:54.571Z,99410.50
2023-06-20T14:52:21.627Z,99416.25
2023-06-20T14:54:48.585Z,99415.41
2023-06-20T14:57:15.956Z,99411.38
2023-06-20T14:59:42.971Z,99417.16
2023-06-20T15:02:10.483Z,99419.63
2023-06-20T15:04:37.488Z,99420.81
2023-06-20T15:07:04.986Z,99413.59
2023-06-20T15:09:36.842Z,99419.88
2023-06-20T15:12:04.488Z,99417.63
2023-06-20T15:14:31.534Z,99418.06
2023-06-20T15:16:58.819Z,99416.00
2023-06-20T15:19:25.804Z,99403.19
2023-06-20T15:21:53.209Z,99402.66
2023-06-20T15:24:20.442Z,99399.09
2023-06-20T15:26:47.780Z,99394.47
2023-06-20T15:29:14.867Z,99402.38
2023-06-20T15:31:42.815Z,99392.81
2023-06-20T15:34:09.848Z,99397.72
2023-06-20T15:36:37.192Z,99381.53
2023-06-20T15:39:04.239Z,99380.78
2023-06-20T15:41:31.656Z,99362.91
2023-06-20T15:43:58.840Z,99363.03
2023-06-20T15:46:31.728Z,99359.03
2023-06-20T15:49:04.515Z,99353.16
2023-06-20T15:51:32.863Z,99354.41
2023-06-20T15:53:59.973Z,99354.28
2023-06-20T15:56:29.817Z,99360.63
2023-06-20T15:58:57.465Z,99358.09
2023-06-20T16:01:25.964Z,99349.19
2023-06-20T16:03:55.627Z,99353.81
2023-06-20T16:06:25.238Z,99351.16
2023-06-20T16:08:52.537Z,99363.97
2023-06-20T16:11:20.203Z,99350.22
2023-06-20T16:13:50.178Z,99360.63
2023-06-20T16:16:17.476Z,99354.53
2023-06-20T16:18:44.916Z,99356.91
2023-06-20T16:21:14.966Z,99353.00
2023-06-20T16:23:43.133Z,99354.88
2023-06-20T16:26:13.679Z,99363.06
2023-06-20T16:28:40.718Z,99359.97
2023-06-20T16:31:08.270Z,99354.13
2023-06-20T16:33:48.720Z,99364.47
2023-06-20T16:36:18.400Z,99356.44
2023-06-20T16:38:51.299Z,99354.94
2023-06-20T16:41:23.626Z,99354.69
2023-06-20T16:43:53.041Z,99353.16
2023-06-20T16:46:20.243Z,99353.13
2023-06-20T16:48:47.317Z,99352.09
2023-06-20T16:51:14.825Z,99355.50
2023-06-20T16:53:43.563Z,99356.03
2023-06-20T16:56:13.542Z,99350.19
2023-06-20T16:58:40.591Z,99346.63
2023-06-20T17:01:07.897Z,99353.03
2023-06-20T17:03:34.957Z,99342.00
2023-06-20T17:06:02.357Z,99334.13
2023-06-20T17:08:29.306Z,99338.97
2023-06-20T17:10:56.664Z,99331.06
2023-06-20T17:13:23.638Z,99331.72
2023-06-20T17:15:50.987Z,99328.63
2023-06-20T17:18:22.029Z,99340.66
2023-06-20T17:20:49.452Z,99331.81
2023-06-20T17:23:18.804Z,99343.16
2023-06-20T17:25:46.317Z,99338.72
2023-06-20T17:28:13.429Z,99350.03
2023-06-20T17:30:40.982Z,99341.34
2023-06-20T17:33:08.248Z,99340.53
2023-06-20T17:35:35.783Z,99339.59
2023-06-20T17:38:03.666Z,99341.50
2023-06-20T17:40:31.724Z,99342.81
2023-06-20T17:43:01.356Z,99348.09
2023-06-20T17:45:31.051Z,99343.72
2023-06-20T17:48:00.696Z,99334.97
2023-06-20T17:50:30.807Z,99332.66
2023-06-20T17:52:58.300Z,99341.72
2023-06-20T17:55:25.712Z,99335.88
2023-06-20T17:58:00.652Z,99344.06
2023-06-20T18:00:31.093Z,99344.88
2023-06-20T18:03:02.604Z,99326.16
2023-06-20T18:05:34.146Z,99338.81
2023-06-20T18:08:01.672Z,99330.69
2023-06-20T18:10:30.636Z,99323.97
2023-06-20T18:12:59.623Z,99333.81
2023-06-20T18:15:28.936Z,99335.72
2023-06-20T18:17:57.017Z,99322.56
2023-06-20T18:20:25.748Z,99328.63
2023-06-20T18:22:53.928Z,99329.88
2023-06-20T18:25:21.914Z,99320.91
2023-06-20T18:27:52.163Z,99325.78
2023-06-20T18:30:20.636Z,99321.16
2023-06-20T18:32:48.401Z,99329.41
2023-06-20T18:35:17.847Z,99323.22
2023-06-20T18:37:44.917Z,99333.66
2023-06-20T18:40:13.102Z,99334.13
2023-06-20T18:42:41.030Z,99322.44
2023-06-20T18:45:09.614Z,99317.59
2023-06-20T18:47:39.275Z,99324.47
2023-06-20T18:50:08.191Z,99309.88
2023-06-20T18:52:41.940Z,99314.69
2023-06-20T18:55:10.160Z,99309.13
2023-06-20T18:57:40.022Z,99322.00
2023-06-20T19:00:07.913Z,99323.53
2023-06-20T19:02:36.323Z,99323.69
2023-06-20T19:05:06.166Z,99322.94
2023-06-20T19:07:34.474Z,99321.31
2023-06-20T19:10:02.100Z,99324.81
2023-06-20T19:12:29.908Z,99322.34
2023-06-20T19:14:57.494Z,99332.25
2023-06-20T19:17:27.730Z,99328.97
2023-06-20T19:19:56.076Z,99329.25
2023-06-20T19:22:23.732Z,99324.84
2023-06-20T19:24:53.819Z,99330.53
2023-06-20T19:27:21.571Z,99335.38
2023-06-20T19:29:49.282Z,99335.78
2023-06-20T19:32:16.525Z,99350.34
2023-06-20T19:34:44.307Z,99353.09
2023-06-20T19:37:11.762Z,99351.81
2023-06-20T19:39:39.123Z,99344.41
2023-06-20T19:42:06.590Z,99352.34
2023-06-20T19:44:34.677Z,99347.69
2023-06-20T19:47:03.009Z,99347.28
2023-06-20T19:49:36.514Z,99347.94
2023-06-20T19:52:07.799Z,99348.03
2023-06-20T19:54:35.613Z,99352.50
2023-06-20T19:57:04.688Z,99347.16
2023-06-20T19:59:32.365Z,99344.03
2023-06-20T20:01:59.805Z,99347.16
2023-06-20T20:04:28.656Z,99343.31
2023-06-20T20:06:56.318Z,99348.31
2023-06-20T20:09:26.250Z,99351.97
2023-06-20T20:11:57.459Z,99349.94
2023-06-20T20:14:25.911Z,99348.50
2023-06-20T20:16:53.748Z,99349.56
2023-06-20T20:19:21.001Z,99353.69
2023-06-20T20:21:48.033Z,99347.97
2023-06-20T20:24:16.002Z,99335.50
2023-06-20T20:26:43.164Z,99335.50
2023-06-20T20:29:10.639Z,99328.34
2023-06-20T20:31:37.681Z,99330.25
2023-06-20T20:34:05.142Z,99332.69
2023-06-20T20:36:32.099Z,99330.78
2023-06-20T20:39:00.081Z,99326.25
2023-06-20T20:41:29.496Z,99324.53
2023-06-20T20:43:56.996Z,99329.25
2023-06-20T20:46:24.131Z,99336.03
2023-06-20T20:48:52.333Z,99338.25
2023-06-20T20:51:19.585Z,99335.00
2023-06-20T20:53:49.345Z,99337.97
2023-06-20T20:56:16.291Z,99341.06
2023-06-20T20:58:44.647Z,99343.47
2023-06-20T21:01:11.728Z,99343.75
2023-06-20T21:03:39.796Z,99341.44
2023-06-20T21:06:10.275Z,99339.63
2023-06-20T21:08:39.921Z,99348.00
2023-06-20T21:11:09.262Z,99350.75
2023-06-20T21:13:36.618Z,99353.63
2023-06-20T21:16:03.697Z,99360.81
2023-06-20T21:18:31.005Z,99364.75
2023-06-20T21:20:58.116Z,99361.56
2023-06-20T21:23:25.445Z,99354.81
2023-06-20T21:25:52.472Z,99343.81
2023-06-20T21:28:19.768Z,99346.88
2023-06-20T21:30:49.116Z,99345.31
2023-06-20T21:33:16.346Z,99345.69
2023-06-20T21:35:43.280Z,99338.34
2023-06-20T21:38:12.953Z,99336.84
2023-06-20T21:40:40.324Z,99340.47
2023-06-20T21:43:09.880Z,99330.16
2023-06-20T21:45:36.793Z,99331.66
2023-06-20T21:48:04.186Z,99322.03
2023-06-20T21:50:31.402Z,99321.69
2023-06-20T21:52:58.760Z,99310.63
2023-06-20T21:55:25.710Z,99312.72
2023-06-20T21:57:53.364Z,99320.56
2023-06-20T22:00:20.396Z,99313.56
2023-06-20T22:02:47.706Z,99322.66
2023-06-20T22:05:17.304Z,99323.88
2023-06-20T22:07:47.048Z,99325.50
2023-06-20T22:10:16.500Z,99325.75
2023-06-20T22:12:45.849Z,99335.19
2023-06-20T22:15:15.239Z,99329.91
2023-06-20T22:17:45.104Z,99326.13
2023-06-20T22:20:12.466Z,99326.13
2023-06-20T22:22:39.979Z,99324.03
2023-06-20T22:25:07.285Z,99323.91
2023-06-20T22:27:34.762Z,99318.50
2023-06-20T22:30:02.098Z,99316.91
2023-06-20T22:32:30.925Z,99322.56
2023-06-20T22:34:57.935Z,99310.88
2023-06-20T22:37:27.597Z,99308.81
2023-06-20T22:39:54.671Z,99323.41
2023-06-20T22:42:26.436Z,99322.66
2023-06-20T22:44:53.513Z,99325.88
2023-06-20T22:47:20.768Z,99328.69
2023-06-20T22:49:50.252Z,99327.16
2023-06-20T22:52:20.835Z,99329.47
2023-06-20T22:54:50.379Z,99324.69
2023-06-20T22:57:20.013Z,99321.59
2023-06-20T22:59:46.964Z,99326.38
2023-06-20T23:02:14.183Z,99326.84
2023-06-20T23:04:41.278Z,99326.97
2023-06-20T23:07:08.552Z,99330.91
2023-06-20T23:09:35.611Z,99330.91
2023-06-20T23:12:05.755Z,99320.25
2023-06-20T23:14:32.721Z,99319.13
2023-06-20T23:17:00.054Z,99316.66
2023-06-20T23:19:32.944Z,99312.72
2023-06-20T23:22:00.381Z,99317.84
2023-06-20T23:24:27.452Z,99308.38
2023-06-20T23:26:55.513Z,99301.28
2023-06-20T23:29:22.740Z,99300.88
2023-06-20T23:31:52.401Z,99303.56
2023-06-20T23:34:21.814Z,99307.59
2023-06-20T23:36:49.374Z,99303.00
2023-06-20T23:39:16.504Z,99298.19
2023-06-20T23:41:43.742Z,99292.44
2023-06-20T23:44:15.229Z,99287.41
2023-06-20T23:46:42.504Z,99287.13
2023-06-20T23:49:09.556Z,99283.00
2023-06-20T23:51:37.034Z,99285.53
2023-06-20T23:54:06.021Z,99286.75
2023-06-20T23:56:35.533Z,99291.28
2023-06-20T23:59:05.515Z,99297.47
